Time;durP1;ratioP1;P1;durP2;ratioP2;P2;SDS_P1;SDS_P2;PMS_P1;PMS_P2;Temp;Humidity;BMP_temperature;BMP_pressure;BME280_temperature;BME280_humidity;BME280_pressure;Samples;Min_cycle;Max_cycle;Signal;HPM_P1;HPM_P2
2021/05/13 00:01:32;;;;;;;4.70;4.30;;;12.10;99.90;;;;;;5052806;28;20162;-92
2021/05/13 00:03:57;;;;;;;5.05;4.38;;;12.00;99.90;;;;;;5052904;28;20209;-94
2021/05/13 00:06:23;;;;;;;7.32;5.05;;;12.00;99.90;;;;;;5052705;28;20622;-92
2021/05/13 00:08:55;;;;;;;5.18;4.20;;;12.10;99.90;;;;;;5052713;28;20274;-93
2021/05/13 00:11:28;;;;;;;5.15;4.07;;;12.10;99.90;;;;;;5052821;28;20556;-91
2021/05/13 00:13:54;;;;;;;4.85;4.30;;;12.10;99.90;;;;;;5052693;28;20209;-91
2021/05/13 00:16:22;;;;;;;6.32;4.40;;;12.10;99.90;;;;;;5052758;28;20522;-94
2021/05/13 00:18:48;;;;;;;5.18;4.10;;;12.10;99.90;;;;;;5054770;28;20182;-93
2021/05/13 00:21:14;;;;;;;5.40;4.07;;;12.10;99.90;;;;;;5057189;28;20181;-91
2021/05/13 00:23:39;;;;;;;4.47;4.00;;;12.00;99.90;;;;;;5057081;28;20271;-93
2021/05/13 00:26:05;;;;;;;4.82;4.13;;;12.00;99.90;;;;;;5057121;28;20177;-92
2021/05/13 00:28:31;;;;;;;5.78;3.83;;;12.00;99.90;;;;;;5056490;28;20253;-92
2021/05/13 00:30:57;;;;;;;6.22;4.22;;;12.00;99.90;;;;;;5056309;28;20170;-93
2021/05/13 00:33:22;;;;;;;6.45;4.10;;;11.90;99.90;;;;;;5056294;28;20198;-93
2021/05/13 00:35:48;;;;;;;5.95;3.80;;;11.90;99.90;;;;;;5056832;28;20268;-92
2021/05/13 00:38:14;;;;;;;4.95;4.10;;;11.90;99.90;;;;;;5056624;28;20652;-92
2021/05/13 00:40:40;;;;;;;4.15;3.75;;;11.90;99.90;;;;;;5056436;28;20173;-93
2021/05/13 00:43:05;;;;;;;4.47;3.63;;;11.90;99.90;;;;;;5056019;28;20680;-91
2021/05/13 00:45:31;;;;;;;4.70;3.75;;;11.90;99.90;;;;;;5055975;28;20166;-92
2021/05/13 00:50:24;;;;;;;4.18;3.78;;;11.90;99.90;;;;;;5057636;28;20158;-93
2021/05/13 00:52:51;;;;;;;4.25;3.67;;;11.90;99.90;;;;;;5056151;28;20205;-91
2021/05/13 00:55:19;;;;;;;4.22;3.47;;;11.80;99.90;;;;;;5056153;28;20170;-92
2021/05/13 00:57:48;;;;;;;5.40;3.42;;;11.80;99.90;;;;;;5056034;28;20170;-94
2021/05/13 01:03:01;;;;;;;8.00;3.85;;;11.70;99.90;;;;;;5057020;28;20252;-92
2021/05/13 01:05:28;;;;;;;7.22;3.65;;;11.70;99.90;;;;;;5055706;28;20173;-92
2021/05/13 01:07:57;;;;;;;5.30;3.25;;;11.70;99.90;;;;;;5055762;28;20173;-92
2021/05/13 01:10:25;;;;;;;5.22;3.45;;;11.70;99.90;;;;;;5056770;28;20697;-93
2021/05/13 01:12:51;;;;;;;6.68;3.60;;;11.70;99.90;;;;;;5055659;28;20201;-90
2021/05/13 01:15:34;;;;;;;4.63;3.40;;;11.70;99.90;;;;;;5055735;28;20174;-92
2021/05/13 01:20:28;;;;;;;6.40;3.25;;;11.70;99.90;;;;;;5057239;28;20172;-92
2021/05/13 01:22:56;;;;;;;4.57;3.20;;;11.70;99.90;;;;;;5055494;28;20240;-91
2021/05/13 01:25:22;;;;;;;3.30;3.00;;;11.80;99.90;;;;;;5055730;28;20188;-92
2021/05/13 01:27:48;;;;;;;8.32;3.38;;;11.70;99.90;;;;;;5055608;28;20172;-93
2021/05/13 01:30:16;;;;;;;4.25;3.47;;;11.70;99.90;;;;;;5055206;28;20173;-92
2021/05/13 01:32:42;;;;;;;5.03;2.95;;;11.70;99.90;;;;;;5055311;28;20193;-93
2021/05/13 01:35:09;;;;;;;4.75;3.33;;;11.60;99.90;;;;;;5055907;28;20174;-93
2021/05/13 01:37:37;;;;;;;4.97;3.50;;;11.60;99.90;;;;;;5406138;22;20546;-95
2021/05/13 01:40:13;;;;;;;4.85;3.40;;;11.60;99.90;;;;;;5024201;28;20198;-95
2021/05/13 01:42:40;;;;;;;4.47;3.17;;;11.60;99.90;;;;;;5054033;23;20237;-92
2021/05/13 01:45:07;;;;;;;3.78;3.38;;;11.60;99.90;;;;;;5055177;28;20181;-93
2021/05/13 01:47:36;;;;;;;4.13;3.13;;;11.60;99.90;;;;;;5055009;28;20220;-94
2021/05/13 01:50:03;;;;;;;6.43;3.15;;;11.60;99.90;;;;;;5055048;28;20252;-94
2021/05/13 01:52:28;;;;;;;4.63;3.33;;;11.60;99.90;;;;;;5054503;28;20210;-95
2021/05/13 01:54:55;;;;;;;3.58;2.78;;;11.60;99.90;;;;;;5054985;28;20726;-95
2021/05/13 01:57:22;;;;;;;5.50;3.22;;;11.70;99.90;;;;;;5054709;28;20178;-93
2021/05/13 01:59:47;;;;;;;5.50;3.15;;;11.70;99.90;;;;;;5055268;28;20181;-92
2021/05/13 02:02:15;;;;;;;3.53;3.17;;;11.60;99.90;;;;;;5055709;28;20209;-94
2021/05/13 02:04:40;;;;;;;4.72;3.35;;;11.60;99.90;;;;;;5054740;28;20174;-93
2021/05/13 02:07:06;;;;;;;4.15;3.10;;;11.60;99.90;;;;;;5055750;28;20154;-94
2021/05/13 02:09:33;;;;;;;3.77;3.00;;;11.60;99.90;;;;;;5054633;28;20196;-94
2021/05/13 02:11:59;;;;;;;3.78;3.35;;;11.60;99.90;;;;;;5054735;28;20280;-94
2021/05/13 02:14:26;;;;;;;4.30;2.90;;;11.60;99.90;;;;;;5054624;28;20184;-95
2021/05/13 02:16:51;;;;;;;5.10;2.80;;;11.50;99.90;;;;;;5053872;28;20177;-93
2021/05/13 02:19:17;;;;;;;6.05;3.20;;;11.50;99.90;;;;;;5054098;28;20174;-94
2021/05/13 02:21:43;;;;;;;4.50;3.10;;;11.60;99.90;;;;;;5053901;28;20216;-93
2021/05/13 02:24:09;;;;;;;4.55;2.92;;;11.60;99.90;;;;;;5053930;28;20305;-95
2021/05/13 02:26:34;;;;;;;3.83;3.23;;;11.60;99.90;;;;;;5053715;28;20384;-92
2021/05/13 02:29:02;;;;;;;3.28;2.70;;;11.70;99.90;;;;;;5054071;28;20677;-92
2021/05/13 02:31:28;;;;;;;3.33;2.90;;;11.60;99.90;;;;;;5053921;28;20524;-92
2021/05/13 02:33:53;;;;;;;4.13;2.73;;;11.70;99.90;;;;;;5053821;28;20215;-94
2021/05/13 02:36:19;;;;;;;4.73;2.53;;;11.70;99.90;;;;;;5053952;28;20524;-92
2021/05/13 02:38:45;;;;;;;3.83;2.67;;;11.60;99.90;;;;;;5053938;28;20177;-95
2021/05/13 02:41:10;;;;;;;3.27;2.40;;;11.70;99.90;;;;;;5053002;28;20367;-95
2021/05/13 02:43:39;;;;;;;3.47;2.70;;;11.70;99.90;;;;;;5053234;28;20212;-94
2021/05/13 02:46:05;;;;;;;3.42;2.30;;;11.60;99.90;;;;;;5053491;28;20174;-95
2021/05/13 02:48:31;;;;;;;3.90;2.40;;;11.60;99.90;;;;;;5053737;28;20181;-93
2021/05/13 02:50:57;;;;;;;4.18;2.80;;;11.70;99.90;;;;;;5054032;28;20677;-93
2021/05/13 02:53:23;;;;;;;6.57;2.50;;;11.60;99.90;;;;;;5053715;28;20216;-93
2021/05/13 02:55:50;;;;;;;4.63;2.60;;;11.50;99.90;;;;;;5053820;28;20710;-93
2021/05/13 02:58:16;;;;;;;4.80;2.65;;;11.50;99.90;;;;;;5053752;28;20170;-93
2021/05/13 03:03:16;;;;;;;3.55;2.20;;;11.40;99.90;;;;;;5054507;28;20228;-93
2021/05/13 03:05:42;;;;;;;4.00;2.70;;;11.30;99.90;;;;;;5053783;28;20178;-96
2021/05/13 03:08:10;;;;;;;3.17;2.70;;;11.20;99.90;;;;;;5053514;28;20166;-95
2021/05/13 03:10:44;;;;;;;6.68;3.03;;;11.20;99.90;;;;;;5054058;28;20178;-95
2021/05/13 03:13:13;;;;;;;4.10;2.38;;;11.20;99.90;;;;;;5053901;28;20232;-93
2021/05/13 03:15:38;;;;;;;7.25;2.80;;;11.20;99.90;;;;;;5054374;28;20178;-93
2021/05/13 03:18:05;;;;;;;4.27;2.40;;;11.10;99.90;;;;;;5053976;28;20207;-93
2021/05/13 03:20:39;;;;;;;5.60;2.80;;;11.10;99.90;;;;;;5055562;28;20637;-95
2021/05/13 03:23:08;;;;;;;4.72;2.78;;;11.10;99.90;;;;;;5072800;28;20212;-94
2021/05/13 03:25:36;;;;;;;2.97;2.50;;;11.10;99.90;;;;;;5075563;28;20758;-93
2021/05/13 03:28:09;;;;;;;5.40;2.90;;;11.10;99.90;;;;;;5074546;28;20260;-92
2021/05/13 03:30:40;;;;;;;3.83;3.10;;;11.10;99.90;;;;;;5074022;28;20537;-95
2021/05/13 03:33:07;;;;;;;5.23;2.83;;;11.10;99.90;;;;;;5074129;28;20208;-94
2021/05/13 03:35:33;;;;;;;3.17;2.80;;;11.10;99.90;;;;;;5073881;28;20185;-94
2021/05/13 03:38:00;;;;;;;3.53;3.03;;;11.00;99.90;;;;;;5074003;28;20617;-93
2021/05/13 03:40:29;;;;;;;4.43;3.50;;;11.00;99.90;;;;;;5073857;28;20211;-93
2021/05/13 03:42:54;;;;;;;5.67;3.63;;;11.00;99.90;;;;;;5073515;28;20696;-93
2021/05/13 03:45:21;;;;;;;4.63;3.70;;;11.00;99.90;;;;;;5073630;28;20181;-93
2021/05/13 03:47:46;;;;;;;4.60;3.70;;;11.00;99.90;;;;;;5073604;28;20177;-96
2021/05/13 03:50:14;;;;;;;6.13;3.90;;;11.00;99.90;;;;;;5073918;28;20562;-94
2021/05/13 03:52:40;;;;;;;6.40;4.00;;;11.00;99.90;;;;;;5060160;28;20300;-92
2021/05/13 03:55:06;;;;;;;6.13;4.07;;;11.00;99.90;;;;;;5058618;28;20704;-92
2021/05/13 03:57:32;;;;;;;7.53;4.80;;;11.00;99.90;;;;;;5057433;28;20181;-94
2021/05/13 04:00:00;;;;;;;6.55;4.50;;;11.00;99.90;;;;;;5057808;28;20593;-92
2021/05/13 04:02:33;;;;;;;7.03;4.55;;;11.00;99.90;;;;;;5058636;28;20225;-92
2021/05/13 04:04:59;;;;;;;5.07;4.53;;;11.00;99.90;;;;;;5058063;28;20177;-95
2021/05/13 04:07:30;;;;;;;8.20;5.30;;;11.00;99.90;;;;;;5057547;28;20181;-92
2021/05/13 04:09:57;;;;;;;4.70;4.17;;;11.00;99.90;;;;;;5058362;28;20178;-92
2021/05/13 04:12:23;;;;;;;6.88;4.20;;;11.10;99.90;;;;;;5058041;28;20202;-92
2021/05/13 04:14:50;;;;;;;6.50;4.70;;;11.10;99.90;;;;;;5059936;28;20178;-92
2021/05/13 04:17:16;;;;;;;6.68;4.53;;;11.10;99.90;;;;;;5059184;28;20174;-93
2021/05/13 04:19:42;;;;;;;5.20;4.43;;;11.10;99.90;;;;;;5058925;28;20220;-92
2021/05/13 04:22:08;;;;;;;5.37;4.57;;;11.20;99.90;;;;;;5058767;28;20210;-93
2021/05/13 04:24:33;;;;;;;6.95;4.60;;;11.20;99.90;;;;;;5059640;28;20204;-95
2021/05/13 04:26:59;;;;;;;6.30;4.28;;;11.20;99.90;;;;;;5060087;28;20208;-93
2021/05/13 04:29:25;;;;;;;5.73;4.07;;;11.20;99.90;;;;;;5060613;28;20170;-93
2021/05/13 04:31:51;;;;;;;6.03;4.75;;;11.20;99.90;;;;;;5060974;28;20205;-95
2021/05/13 04:34:16;;;;;;;6.93;4.33;;;11.20;99.90;;;;;;5062892;28;20178;-91
2021/05/13 04:36:42;;;;;;;8.73;4.50;;;11.30;99.90;;;;;;5061020;28;20542;-92
2021/05/13 04:39:09;;;;;;;8.75;4.25;;;11.30;99.90;;;;;;5062588;28;20185;-91
2021/05/13 04:41:35;;;;;;;6.17;4.47;;;11.30;99.90;;;;;;5061449;28;20308;-93
2021/05/13 04:44:02;;;;;;;6.50;4.30;;;11.20;99.90;;;;;;5061072;28;20248;-93
2021/05/13 04:46:31;;;;;;;5.25;4.30;;;11.20;99.90;;;;;;5061398;28;20174;-93
2021/05/13 04:51:28;;;;;;;9.10;4.37;;;11.20;99.90;;;;;;5062889;28;20158;-92
2021/05/13 04:53:54;;;;;;;6.53;4.50;;;11.20;99.90;;;;;;5062020;28;20206;-93
2021/05/13 04:56:21;;;;;;;7.37;4.50;;;11.20;99.90;;;;;;5061123;28;20177;-92
2021/05/13 04:58:48;;;;;;;7.15;4.47;;;11.20;99.90;;;;;;5060953;28;20178;-93
2021/05/13 05:01:15;;;;;;;7.63;4.80;;;11.20;99.90;;;;;;5060704;28;20189;-93
2021/05/13 05:03:41;;;;;;;6.30;4.43;;;11.10;99.90;;;;;;5061131;28;20206;-94
2021/05/13 05:06:07;;;;;;;7.17;4.87;;;11.10;99.90;;;;;;5058935;28;20204;-92
2021/05/13 05:08:33;;;;;;;9.67;4.90;;;11.10;99.90;;;;;;5060885;28;20549;-92
2021/05/13 05:10:59;;;;;;;9.60;4.97;;;11.10;99.90;;;;;;5063125;28;20201;-93
2021/05/13 05:13:24;;;;;;;10.47;4.37;;;11.20;99.90;;;;;;5061018;28;20223;-95
2021/05/13 05:15:50;;;;;;;7.13;4.65;;;11.20;99.90;;;;;;5060213;28;20182;-93
2021/05/13 05:18:19;;;;;;;6.77;4.33;;;11.20;99.90;;;;;;5062597;28;20188;-91
2021/05/13 05:20:45;;;;;;;9.60;4.60;;;11.20;99.90;;;;;;5065228;28;20189;-95
2021/05/13 05:23:13;;;;;;;9.23;4.67;;;11.20;99.90;;;;;;5056314;28;20210;-96
2021/05/13 05:25:39;;;;;;;11.13;5.13;;;11.10;99.90;;;;;;5058365;28;20177;-93
2021/05/13 05:28:08;;;;;;;9.90;5.20;;;11.10;99.90;;;;;;5062264;28;20189;-93
2021/05/13 05:30:36;;;;;;;7.67;4.47;;;11.10;99.90;;;;;;5063490;28;20197;-91
2021/05/13 05:33:09;;;;;;;8.80;4.67;;;11.10;99.90;;;;;;5062204;28;20193;-92
2021/05/13 05:35:39;;;;;;;9.67;4.83;;;11.10;99.90;;;;;;5062100;28;20174;-92
2021/05/13 05:38:07;;;;;;;11.83;5.17;;;11.10;99.90;;;;;;5062290;28;20668;-92
2021/05/13 05:40:33;;;;;;;10.30;5.60;;;11.10;99.90;;;;;;5063512;28;20649;-92
2021/05/13 05:43:00;;;;;;;8.10;4.70;;;11.10;99.90;;;;;;5061819;28;20230;-93
2021/05/13 05:45:26;;;;;;;9.60;4.50;;;11.10;99.90;;;;;;5058994;28;20213;-90
2021/05/13 05:47:59;;;;;;;8.40;4.80;;;11.00;99.90;;;;;;5056523;28;20205;-92
2021/05/13 05:50:26;;;;;;;6.93;4.47;;;11.10;99.90;;;;;;5061899;28;20236;-91
2021/05/13 05:52:53;;;;;;;9.80;5.07;;;11.10;99.90;;;;;;5062138;28;20229;-93
2021/05/13 05:55:18;;;;;;;11.87;4.90;;;11.10;99.90;;;;;;5062714;28;20173;-93
2021/05/13 05:57:44;;;;;;;6.77;4.67;;;11.20;99.90;;;;;;5062734;28;20166;-92
2021/05/13 06:00:11;;;;;;;8.00;4.40;;;11.20;99.90;;;;;;5061433;28;20192;-91
2021/05/13 06:02:37;;;;;;;8.83;5.10;;;11.30;99.90;;;;;;5061663;28;20224;-91
2021/05/13 06:05:03;;;;;;;8.97;4.97;;;11.20;99.90;;;;;;5062930;28;20170;-93
2021/05/13 06:07:29;;;;;;;10.93;5.03;;;11.30;99.90;;;;;;5062372;28;20174;-92
2021/05/13 06:09:56;;;;;;;11.53;5.37;;;11.30;99.90;;;;;;5063485;28;20184;-92
2021/05/13 06:12:22;;;;;;;10.73;5.13;;;11.30;99.90;;;;;;5062928;28;20277;-94
2021/05/13 06:14:50;;;;;;;7.47;5.00;;;11.40;99.90;;;;;;5062355;28;20184;-93
2021/05/13 06:17:19;;;;;;;8.67;5.13;;;11.40;99.90;;;;;;5061677;28;20687;-92
2021/05/13 06:19:45;;;;;;;10.03;5.13;;;11.50;99.90;;;;;;5061557;28;20178;-92
2021/05/13 06:22:13;;;;;;;13.03;5.20;;;11.50;99.90;;;;;;5061729;28;20204;-94
2021/05/13 06:24:40;;;;;;;9.53;5.17;;;11.60;99.90;;;;;;5061861;28;20162;-92
2021/05/13 06:27:06;;;;;;;11.93;4.73;;;11.60;99.90;;;;;;5059944;28;20270;-94
2021/05/13 06:29:32;;;;;;;9.93;4.60;;;11.60;99.90;;;;;;5060081;28;20567;-92
2021/05/13 06:31:58;;;;;;;10.53;4.37;;;11.60;99.90;;;;;;5059555;28;20190;-92
2021/05/13 06:34:28;;;;;;;11.40;4.73;;;11.70;99.90;;;;;;5061421;28;20177;-92
2021/05/13 06:36:55;;;;;;;10.97;4.90;;;11.80;99.90;;;;;;5063099;28;20197;-92
2021/05/13 06:39:21;;;;;;;8.30;4.73;;;11.90;99.90;;;;;;5063510;28;20170;-92
2021/05/13 06:41:47;;;;;;;11.20;5.13;;;12.00;99.90;;;;;;5060967;28;20271;-91
2021/05/13 06:44:15;;;;;;;8.93;4.37;;;12.00;99.90;;;;;;5064189;28;20205;-92
2021/05/13 06:46:43;;;;;;;8.03;4.90;;;12.20;99.90;;;;;;5062944;28;20178;-92
2021/05/13 06:49:09;;;;;;;9.80;4.33;;;12.20;99.90;;;;;;5063458;28;20196;-92
2021/05/13 06:51:35;;;;;;;17.17;4.87;;;12.20;99.90;;;;;;5061918;28;20618;-92
2021/05/13 06:54:00;;;;;;;12.03;4.30;;;12.20;99.90;;;;;;5062133;28;20177;-92
2021/05/13 06:56:28;;;;;;;8.73;4.37;;;12.20;99.90;;;;;;5062147;28;20182;-92
2021/05/13 06:58:53;;;;;;;10.17;4.47;;;12.20;99.90;;;;;;5061226;28;20162;-92
2021/05/13 07:01:22;;;;;;;8.43;4.05;;;12.20;99.90;;;;;;5060373;28;20220;-91
2021/05/13 07:03:49;;;;;;;10.15;4.90;;;12.20;99.90;;;;;;5062093;28;20205;-92
2021/05/13 07:06:15;;;;;;;7.70;3.90;;;12.20;99.90;;;;;;5064152;28;20173;-93
2021/05/13 07:08:41;;;;;;;8.43;3.90;;;12.20;99.90;;;;;;5063675;28;20173;-92
2021/05/13 07:11:09;;;;;;;9.80;4.55;;;12.30;99.90;;;;;;5062598;28;20162;-94
2021/05/13 07:13:36;;;;;;;10.50;4.00;;;12.30;99.90;;;;;;5062561;28;20198;-93
2021/05/13 07:16:04;;;;;;;7.18;3.83;;;12.40;99.90;;;;;;5063365;28;20173;-92
2021/05/13 07:18:31;;;;;;;10.63;4.20;;;12.40;99.90;;;;;;5062869;28;20185;-94
2021/05/13 07:21:02;;;;;;;10.23;3.83;;;12.40;99.90;;;;;;5057052;28;20205;-94
2021/05/13 07:23:28;;;;;;;9.00;4.20;;;12.50;99.90;;;;;;5057738;28;20709;-93
2021/05/13 07:25:55;;;;;;;9.77;4.00;;;12.40;99.90;;;;;;5062004;28;20191;-93
2021/05/13 07:28:25;;;;;;;9.07;4.13;;;12.40;99.90;;;;;;5063757;28;20182;-92
2021/05/13 07:30:52;;;;;;;13.07;4.13;;;12.40;99.90;;;;;;5063952;28;20265;-93
2021/05/13 07:33:18;;;;;;;8.65;3.47;;;12.40;99.90;;;;;;5063278;28;20261;-93
2021/05/13 07:35:44;;;;;;;9.38;3.70;;;12.40;99.90;;;;;;5062413;28;20233;-94
2021/05/13 07:38:10;;;;;;;10.02;3.97;;;12.40;99.90;;;;;;5064211;28;20177;-92
2021/05/13 07:40:38;;;;;;;10.63;3.90;;;12.40;99.90;;;;;;5062886;28;20178;-95
2021/05/13 07:43:04;;;;;;;8.65;3.67;;;12.40;99.90;;;;;;5057042;28;20264;-93
2021/05/13 07:45:33;;;;;;;12.82;3.58;;;12.40;99.90;;;;;;5061484;28;20170;-96
2021/05/13 07:48:00;;;;;;;8.98;3.70;;;12.40;99.90;;;;;;5062117;28;20170;-93
2021/05/13 07:50:26;;;;;;;8.88;3.38;;;12.30;99.90;;;;;;5061765;28;20177;-91
2021/05/13 07:52:53;;;;;;;8.98;3.35;;;12.40;99.90;;;;;;5062265;28;20193;-93
2021/05/13 07:55:20;;;;;;;9.80;3.77;;;12.30;99.90;;;;;;5062466;28;20174;-92
2021/05/13 07:57:47;;;;;;;8.37;3.07;;;12.30;99.90;;;;;;5062856;28;20212;-91
2021/05/13 08:00:14;;;;;;;8.18;3.20;;;12.30;99.90;;;;;;5063912;28;20178;-93
2021/05/13 08:02:41;;;;;;;10.00;3.13;;;12.30;99.90;;;;;;5062878;28;20232;-92
2021/05/13 08:05:09;;;;;;;9.67;3.30;;;12.30;99.90;;;;;;5063997;28;20185;-92
2021/05/13 08:07:44;;;;;;;8.68;3.63;;;12.30;99.90;;;;;;5065043;28;20174;-91
2021/05/13 08:10:11;;;;;;;11.45;6.53;;;12.30;99.90;;;;;;5064994;28;20176;-92
2021/05/13 08:12:40;;;;;;;12.27;4.47;;;12.30;99.90;;;;;;5065301;28;20228;-92
2021/05/13 08:15:12;;;;;;;12.48;4.57;;;12.30;99.90;;;;;;5064716;28;20207;-91
2021/05/13 08:17:40;;;;;;;9.93;3.67;;;12.40;99.90;;;;;;5064881;28;20174;-93
2021/05/13 08:20:11;;;;;;;11.18;4.00;;;12.40;99.90;;;;;;5064446;28;20182;-91
2021/05/13 08:22:39;;;;;;;9.52;5.40;;;12.50;99.90;;;;;;5063921;28;20206;-92
2021/05/13 08:25:07;;;;;;;8.35;4.13;;;12.60;99.90;;;;;;5065440;28;20201;-92
2021/05/13 08:27:33;;;;;;;7.22;3.40;;;12.60;99.90;;;;;;5064311;28;20265;-92
2021/05/13 08:30:07;;;;;;;10.98;3.65;;;12.70;99.90;;;;;;5064483;28;20167;-92
2021/05/13 08:32:34;;;;;;;7.78;3.53;;;12.70;99.90;;;;;;5064856;28;20214;-92
2021/05/13 08:35:01;;;;;;;14.23;4.22;;;12.70;99.90;;;;;;5064324;28;20201;-93
2021/05/13 08:37:31;;;;;;;7.35;3.65;;;12.80;99.90;;;;;;5064650;28;20189;-92
2021/05/13 08:39:57;;;;;;;5.93;2.58;;;12.80;99.90;;;;;;5066282;28;20202;-92
2021/05/13 08:42:24;;;;;;;6.78;3.25;;;12.80;99.90;;;;;;5068165;28;20225;-93
2021/05/13 08:44:53;;;;;;;8.25;3.28;;;12.80;99.90;;;;;;5068507;28;20201;-92
2021/05/13 08:47:19;;;;;;;8.93;3.28;;;12.90;99.90;;;;;;5068244;28;20220;-92
2021/05/13 08:49:45;;;;;;;6.90;3.08;;;12.90;99.90;;;;;;5068074;28;20170;-92
2021/05/13 08:52:14;;;;;;;8.00;3.22;;;12.90;99.90;;;;;;5067721;28;20224;-92
2021/05/13 08:54:58;;;;;;;9.90;3.30;;;13.00;99.90;;;;;;5068075;28;20178;-92
2021/05/13 08:57:24;;;;;;;9.48;2.97;;;13.10;99.90;;;;;;5067898;28;20539;-92
2021/05/13 08:59:51;;;;;;;10.77;3.20;;;13.10;99.90;;;;;;5067297;28;20181;-92
2021/05/13 09:02:17;;;;;;;8.15;3.00;;;13.20;99.90;;;;;;5067985;28;20264;-93
2021/05/13 09:04:47;;;;;;;9.05;3.17;;;13.20;99.90;;;;;;5068545;28;20170;-92
2021/05/13 09:07:27;;;;;;;8.05;2.78;;;13.30;99.90;;;;;;5067587;28;20202;-93
2021/05/13 09:10:08;;;;;;;14.13;3.10;;;13.30;99.90;;;;;;5067783;28;20170;-93
2021/05/13 09:12:52;;;;;;;7.80;2.92;;;13.50;99.90;;;;;;5067833;28;20239;-93
2021/05/13 09:15:19;;;;;;;10.75;3.15;;;13.50;99.90;;;;;;5067933;28;20178;-92
2021/05/13 09:18:03;;;;;;;7.57;3.00;;;13.60;99.90;;;;;;5068310;28;20193;-93
2021/05/13 09:20:40;;;;;;;7.90;2.97;;;13.60;99.90;;;;;;5067243;28;20189;-92
2021/05/13 09:23:20;;;;;;;7.55;2.80;;;13.60;99.90;;;;;;5067409;28;20205;-93
2021/05/13 09:26:12;;;;;;;8.05;3.05;;;13.60;99.90;;;;;;5067657;28;20170;-93
2021/05/13 09:28:41;;;;;;;7.45;2.67;;;13.60;99.90;;;;;;5048048;28;20194;-93
2021/05/13 09:31:07;;;;;;;7.57;2.53;;;13.80;99.90;;;;;;5046054;28;20240;-93
2021/05/13 09:33:38;;;;;;;6.70;2.53;;;13.80;99.90;;;;;;5046870;28;20289;-93
2021/05/13 09:36:23;;;;;;;10.88;2.80;;;13.80;99.90;;;;;;5046861;28;20228;-93
2021/05/13 09:38:50;;;;;;;6.93;2.22;;;13.80;99.90;;;;;;5046057;28;20178;-93
2021/05/13 09:41:35;;;;;;;9.02;2.58;;;13.90;99.90;;;;;;5046173;28;20230;-94
2021/05/13 09:44:02;;;;;;;4.20;2.10;;;14.00;99.90;;;;;;5044331;28;20217;-94
2021/05/13 09:46:36;;;;;;;7.25;2.70;;;14.00;99.90;;;;;;5045023;28;20167;-94
2021/05/13 09:49:04;;;;;;;6.82;2.25;;;14.00;99.90;;;;;;5046770;28;20170;-95
2021/05/13 09:51:36;;;;;;;6.50;2.40;;;14.00;99.90;;;;;;5044548;28;20167;-94
2021/05/13 09:54:15;;;;;;;8.43;2.30;;;14.10;99.90;;;;;;5044004;28;20179;-94
2021/05/13 09:56:46;;;;;;;5.07;1.90;;;14.20;99.90;;;;;;5045406;28;20603;-93
2021/05/13 09:59:28;;;;;;;4.97;2.10;;;14.20;99.90;;;;;;5045804;28;20174;-93
2021/05/13 10:02:15;;;;;;;7.95;2.60;;;14.20;99.90;;;;;;5045535;28;20252;-93
2021/05/13 10:04:42;;;;;;;7.22;2.15;;;14.20;99.90;;;;;;5042848;28;20182;-94
2021/05/13 10:07:08;;;;;;;6.97;1.92;;;14.30;99.90;;;;;;5047616;28;20192;-94
2021/05/13 10:09:34;;;;;;;5.45;1.90;;;14.30;99.90;;;;;;5064871;28;20165;-94
2021/05/13 10:12:00;;;;;;;7.20;2.10;;;14.30;99.90;;;;;;5064298;28;20190;-93
2021/05/13 10:14:28;;;;;;;6.82;1.83;;;14.40;99.90;;;;;;5063722;28;20170;-93
2021/05/13 10:17:03;;;;;;;6.38;1.80;;;14.50;99.90;;;;;;5063993;28;20197;-92
2021/05/13 10:19:46;;;;;;;5.72;2.13;;;14.60;99.90;;;;;;5063743;28;20183;-93
2021/05/13 10:22:14;;;;;;;7.20;2.03;;;14.60;99.90;;;;;;5063486;28;20236;-95
2021/05/13 10:24:45;;;;;;;5.13;1.73;;;14.60;99.90;;;;;;5062581;28;20166;-93
2021/05/13 10:27:20;;;;;;;9.48;2.33;;;14.70;99.90;;;;;;5062459;28;20190;-95
2021/05/13 10:29:58;;;;;;;6.30;2.05;;;14.70;99.90;;;;;;5062087;28;20179;-94
2021/05/13 10:32:30;;;;;;;6.10;1.85;;;14.70;99.90;;;;;;5061475;28;20190;-94
2021/05/13 10:35:07;;;;;;;5.85;2.03;;;14.60;99.90;;;;;;5062040;28;20162;-94
2021/05/13 10:37:57;;;;;;;5.07;2.28;;;14.60;99.90;;;;;;5062031;28;20225;-94
2021/05/13 10:41:06;;;;;;;6.53;1.83;;;14.70;99.90;;;;;;5062371;28;20253;-95
2021/05/13 10:43:13;;;;;;;6.57;1.92;;;14.60;99.90;;;;;;5057561;28;20213;-95
2021/05/13 10:45:42;;;;;;;7.35;2.00;;;14.70;99.90;;;;;;5060649;28;20173;-93
2021/05/13 10:48:21;;;;;;;5.18;1.85;;;14.70;99.90;;;;;;5060270;28;20166;-94
2021/05/13 10:50:51;;;;;;;3.97;1.65;;;14.70;99.90;;;;;;5062589;28;20176;-93
2021/05/13 10:53:45;;;;;;;5.13;1.88;;;14.80;99.90;;;;;;5061409;28;20209;-94
2021/05/13 10:56:28;;;;;;;6.45;1.77;;;14.80;99.90;;;;;;5061263;28;20173;-93
2021/05/13 10:59:07;;;;;;;5.13;1.83;;;14.90;99.90;;;;;;5061016;28;20184;-94
2021/05/13 11:01:49;;;;;;;5.30;2.13;;;15.00;99.90;;;;;;5061682;28;20208;-95
2021/05/13 11:04:21;;;;;;;8.60;2.20;;;15.00;99.90;;;;;;5059357;28;20194;-93
2021/05/13 11:06:58;;;;;;;5.95;2.30;;;15.00;99.90;;;;;;5061299;28;20618;-94
2021/05/13 11:12:25;;;;;;;10.30;2.97;;;15.10;99.90;;;;;;5062476;28;20196;-94
2021/05/13 11:17:47;;;;;;;6.25;2.47;;;15.20;99.90;;;;;;5060860;28;20168;-92
2021/05/13 11:20:38;;;;;;;5.47;2.47;;;15.20;99.90;;;;;;5059652;28;20174;-95
2021/05/13 11:23:12;;;;;;;4.68;2.30;;;15.20;99.90;;;;;;5049474;28;20227;-94
2021/05/13 11:25:39;;;;;;;7.70;2.40;;;15.20;99.90;;;;;;5046294;28;20233;-94
2021/05/13 11:28:23;;;;;;;6.85;2.45;;;15.30;99.90;;;;;;5044607;28;20228;-92
2021/05/13 11:33:23;;;;;;;5.90;2.10;;;15.20;99.90;;;;;;5052819;28;20347;-93
2021/05/13 11:35:49;;;;;;;4.57;2.45;;;15.30;99.90;;;;;;5046981;28;20272;-95
2021/05/13 11:38:24;;;;;;;7.32;1.92;;;15.30;99.90;;;;;;5042386;28;20221;-94
2021/05/13 11:40:52;;;;;;;5.35;2.35;;;15.40;99.90;;;;;;5050496;28;20189;-94
2021/05/13 11:43:25;;;;;;;4.88;2.08;;;15.30;99.90;;;;;;5043345;28;20697;-95
2021/05/13 11:46:10;;;;;;;6.05;2.50;;;15.40;99.90;;;;;;5050201;28;20243;-94
2021/05/13 11:48:48;;;;;;;5.57;1.80;;;15.40;99.90;;;;;;5045191;28;20229;-94
2021/05/13 11:51:17;;;;;;;6.03;2.60;;;15.40;99.90;;;;;;5056680;28;20193;-94
2021/05/13 11:53:47;;;;;;;6.07;2.55;;;15.40;99.90;;;;;;5046969;28;20263;-95
2021/05/13 11:56:16;;;;;;;5.45;2.15;;;15.30;99.90;;;;;;5050118;28;20201;-95
2021/05/13 11:58:42;;;;;;;4.68;2.50;;;15.30;99.90;;;;;;5038462;28;20260;-95
2021/05/13 12:01:34;;;;;;;5.80;2.33;;;15.30;99.90;;;;;;5055628;28;20216;-93
2021/05/13 12:04:07;;;;;;;5.13;2.17;;;15.20;99.90;;;;;;5038235;28;20225;-94
2021/05/13 12:07:03;;;;;;;7.10;2.65;;;15.30;99.90;;;;;;5059285;28;20216;-93
2021/05/13 12:09:36;;;;;;;3.50;1.83;;;15.30;99.90;;;;;;4987650;28;20180;-93
2021/05/13 12:12:03;;;;;;;8.73;2.30;;;15.30;99.90;;;;;;5058400;28;20198;-95
2021/05/13 12:14:32;;;;;;;4.75;2.40;;;15.30;99.90;;;;;;5060641;28;20243;-96
2021/05/13 12:16:59;;;;;;;4.60;2.30;;;15.20;99.90;;;;;;5064396;28;20288;-93
2021/05/13 12:19:29;;;;;;;6.15;2.63;;;15.20;99.90;;;;;;5062294;28;20217;-92
2021/05/13 12:21:57;;;;;;;5.20;2.45;;;15.20;99.90;;;;;;5065190;28;20193;-95
2021/05/13 12:24:34;;;;;;;6.72;2.95;;;15.20;99.90;;;;;;5065001;28;20198;-96
2021/05/13 12:27:00;;;;;;;5.35;2.50;;;15.20;99.90;;;;;;5060900;28;20212;-95
2021/05/13 12:29:28;;;;;;;6.50;2.50;;;15.20;99.90;;;;;;5063850;28;20162;-94
2021/05/13 12:31:58;;;;;;;5.82;2.70;;;15.20;99.90;;;;;;5058803;28;20236;-95
2021/05/13 12:34:45;;;;;;;6.93;2.60;;;15.30;99.90;;;;;;5060955;28;20186;-94
2021/05/13 12:37:22;;;;;;;6.25;2.55;;;15.30;99.90;;;;;;5061233;28;20182;-93
2021/05/13 12:39:50;;;;;;;6.10;2.97;;;15.30;99.90;;;;;;5059170;28;20276;-95
2021/05/13 12:42:29;;;;;;;4.40;2.63;;;15.30;99.90;;;;;;5060463;28;20256;-95
2021/05/13 12:45:17;;;;;;;3.88;2.40;;;15.30;99.90;;;;;;5039874;28;20228;-95
2021/05/13 12:47:55;;;;;;;4.43;2.45;;;15.30;99.90;;;;;;5056733;28;20228;-93
2021/05/13 12:50:26;;;;;;;3.92;2.28;;;15.30;99.90;;;;;;5058763;28;20275;-94
2021/05/13 12:53:11;;;;;;;3.55;2.10;;;15.30;99.90;;;;;;5058508;28;20193;-92
2021/05/13 12:55:39;;;;;;;5.22;2.35;;;15.30;99.90;;;;;;5038968;28;20242;-94
2021/05/13 12:58:13;;;;;;;5.40;2.22;;;15.30;99.90;;;;;;5052067;28;20182;-95
2021/05/13 13:00:40;;;;;;;7.53;2.70;;;15.40;99.90;;;;;;5059318;28;20271;-93
2021/05/13 13:03:12;;;;;;;7.22;2.72;;;15.40;99.90;;;;;;5058202;28;20224;-94
2021/05/13 13:05:40;;;;;;;5.78;2.38;;;15.40;99.90;;;;;;5058859;28;20182;-95
2021/05/13 13:08:06;;;;;;;5.22;2.28;;;15.40;99.90;;;;;;5061053;28;20182;-93
2021/05/13 13:10:35;;;;;;;4.10;2.20;;;15.40;99.90;;;;;;5059839;28;20545;-94
2021/05/13 13:13:24;;;;;;;6.60;1.98;;;15.40;99.90;;;;;;5059787;28;20194;-94
2021/05/13 13:16:04;;;;;;;6.47;2.42;;;15.50;99.90;;;;;;5020625;28;20285;-94
2021/05/13 13:18:35;;;;;;;5.22;2.10;;;15.40;99.90;;;;;;5036280;28;20222;-93